Time;durP1;ratioP1;P1;durP2;ratioP2;P2;SDS_P1;SDS_P2;PMS_P1;PMS_P2;Temp;Humidity;BMP_temperature;BMP_pressure;BME280_temperature;BME280_humidity;BME280_pressure;Samples;Min_cycle;Max_cycle;Signal;HPM_P1;HPM_P2
2023/08/06 00:00:25;;;;;;;12.83;3.63;;;16.70;99.90;;;;;;5027000;28;20410;-71
2023/08/06 00:03:10;;;;;;;5.13;3.50;;;16.70;99.90;;;;;;5020379;28;20444;-71
2023/08/06 00:05:56;;;;;;;8.40;3.80;;;16.60;99.90;;;;;;5019151;28;20437;-71
2023/08/06 00:08:41;;;;;;;5.00;4.00;;;16.50;99.90;;;;;;5018468;28;20560;-70
2023/08/06 00:11:27;;;;;;;4.07;3.40;;;16.50;99.90;;;;;;5022771;28;20425;-73
2023/08/06 00:14:15;;;;;;;8.30;4.13;;;16.50;99.90;;;;;;5022053;28;20427;-71
2023/08/06 00:17:01;;;;;;;6.90;4.40;;;16.30;99.90;;;;;;5020289;28;20444;-70
2023/08/06 00:19:47;;;;;;;6.97;3.70;;;16.30;99.90;;;;;;5020240;28;20453;-70
2023/08/06 00:22:32;;;;;;;5.20;3.60;;;16.30;99.90;;;;;;5013969;28;20428;-71
2023/08/06 00:25:18;;;;;;;9.20;5.00;;;16.30;99.90;;;;;;5013850;28;20453;-70
2023/08/06 00:28:04;;;;;;;5.60;3.27;;;16.30;99.90;;;;;;5014956;28;20518;-70
2023/08/06 00:30:53;;;;;;;7.87;5.07;;;16.40;99.90;;;;;;5025610;28;20526;-71
2023/08/06 00:33:40;;;;;;;9.70;3.37;;;16.40;99.90;;;;;;5029182;28;20448;-71
2023/08/06 00:36:26;;;;;;;6.67;4.23;;;16.30;99.90;;;;;;5027018;28;20435;-70
2023/08/06 00:39:11;;;;;;;7.17;4.40;;;16.20;99.90;;;;;;5019613;28;20508;-70
2023/08/06 00:41:58;;;;;;;5.23;3.53;;;16.30;99.90;;;;;;5016465;28;20581;-72
2023/08/06 00:44:43;;;;;;;4.17;3.40;;;16.30;99.90;;;;;;5027899;28;20445;-72
2023/08/06 00:47:28;;;;;;;6.37;3.60;;;16.40;99.90;;;;;;5021897;28;20995;-72
2023/08/06 00:50:16;;;;;;;6.00;3.40;;;16.40;99.90;;;;;;5018240;28;20445;-71
2023/08/06 00:53:01;;;;;;;4.57;3.50;;;16.40;99.90;;;;;;5022781;28;20419;-72
2023/08/06 00:55:48;;;;;;;6.23;3.73;;;16.40;99.90;;;;;;5023303;28;20530;-72
2023/08/06 00:58:34;;;;;;;9.60;3.47;;;16.50;99.90;;;;;;5024018;28;20963;-71
2023/08/06 01:01:19;;;;;;;5.20;3.73;;;16.40;99.90;;;;;;5019568;28;20609;-70
2023/08/06 01:04:05;;;;;;;8.50;3.30;;;16.40;99.90;;;;;;5017865;28;20569;-71
2023/08/06 01:07:02;;;;;;;9.30;3.87;;;16.40;99.90;;;;;;5023547;28;20495;-71
2023/08/06 01:09:58;;;;;;;7.30;3.43;;;16.40;99.90;;;;;;5019199;28;20423;-71
2023/08/06 01:12:49;;;;;;;5.30;3.30;;;16.50;99.90;;;;;;5020229;28;20439;-71
2023/08/06 01:15:42;;;;;;;5.47;3.50;;;16.40;99.90;;;;;;5018582;28;20807;-71
2023/08/06 01:18:27;;;;;;;5.93;3.40;;;16.30;99.90;;;;;;5022679;28;20472;-71
2023/08/06 01:21:14;;;;;;;4.73;3.10;;;16.30;99.90;;;;;;5021622;28;20534;-71
2023/08/06 01:23:59;;;;;;;7.73;3.60;;;16.30;99.90;;;;;;5023135;28;20423;-72
2023/08/06 01:26:49;;;;;;;3.77;3.10;;;16.30;99.90;;;;;;5016789;28;20447;-70
2023/08/06 01:29:40;;;;;;;4.40;3.23;;;16.40;99.90;;;;;;5020692;28;20453;-71
2023/08/06 01:32:27;;;;;;;6.03;3.37;;;16.40;99.90;;;;;;5025517;28;20917;-71
2023/08/06 01:35:14;;;;;;;5.70;3.17;;;16.50;99.90;;;;;;5023234;28;20426;-73
2023/08/06 01:38:02;;;;;;;4.03;3.00;;;16.50;99.90;;;;;;5020831;28;20521;-71
2023/08/06 01:40:47;;;;;;;4.60;3.33;;;16.30;99.90;;;;;;5027479;28;20447;-71
2023/08/06 01:43:33;;;;;;;6.47;3.30;;;16.20;99.90;;;;;;5031009;28;20427;-71
2023/08/06 01:46:18;;;;;;;8.93;4.20;;;16.20;99.90;;;;;;5022817;28;20450;-71
2023/08/06 01:49:03;;;;;;;4.37;3.30;;;16.20;99.90;;;;;;5016219;28;20438;-71
2023/08/06 01:51:48;;;;;;;8.77;2.90;;;16.30;99.90;;;;;;5022338;28;20468;-71
2023/08/06 01:54:35;;;;;;;4.70;2.90;;;16.30;99.90;;;;;;5020691;28;20419;-71
2023/08/06 01:57:21;;;;;;;4.33;3.33;;;16.30;99.90;;;;;;5029365;28;21132;-70
2023/08/06 02:00:08;;;;;;;8.10;3.30;;;16.40;99.90;;;;;;5034979;28;20422;-71
2023/08/06 02:02:53;;;;;;;5.23;2.57;;;16.40;99.90;;;;;;5024952;28;20804;-71
2023/08/06 02:05:39;;;;;;;10.43;2.50;;;16.40;99.90;;;;;;5029177;28;20525;-71
2023/08/06 02:08:24;;;;;;;4.20;2.90;;;16.50;99.90;;;;;;5019819;28;20423;-72
2023/08/06 02:11:11;;;;;;;8.93;3.33;;;16.40;99.90;;;;;;5035738;28;20545;-71
2023/08/06 02:13:57;;;;;;;5.83;3.37;;;16.40;99.90;;;;;;5024989;28;20457;-71
2023/08/06 02:16:42;;;;;;;4.80;2.93;;;16.40;99.90;;;;;;5020765;28;20561;-73
2023/08/06 02:19:27;;;;;;;3.80;2.90;;;16.30;99.90;;;;;;5027731;28;20535;-70
2023/08/06 02:22:13;;;;;;;4.50;2.70;;;16.30;99.90;;;;;;5030803;28;20435;-71
2023/08/06 02:24:58;;;;;;;7.03;3.10;;;16.30;99.90;;;;;;5021797;28;20558;-72
2023/08/06 02:27:45;;;;;;;3.37;2.30;;;16.40;99.90;;;;;;5023632;28;20773;-71
2023/08/06 02:30:30;;;;;;;7.00;3.10;;;16.50;99.90;;;;;;5016476;28;20815;-71
2023/08/06 02:33:16;;;;;;;3.50;2.50;;;16.40;99.90;;;;;;5022494;28;20738;-70
2023/08/06 02:36:03;;;;;;;5.83;2.80;;;16.40;99.90;;;;;;5020981;28;20483;-71
2023/08/06 02:38:48;;;;;;;4.70;2.40;;;16.50;99.90;;;;;;5031665;28;20455;-71
2023/08/06 02:41:34;;;;;;;9.27;4.30;;;16.50;99.90;;;;;;5023899;28;20428;-71
2023/08/06 02:44:21;;;;;;;3.77;2.97;;;16.50;99.90;;;;;;5030671;28;20464;-71
2023/08/06 02:47:06;;;;;;;4.93;2.90;;;16.50;99.90;;;;;;5021746;28;20438;-71
2023/08/06 02:49:51;;;;;;;6.10;2.90;;;16.50;99.90;;;;;;5021964;28;20500;-70
2023/08/06 02:52:38;;;;;;;9.30;2.63;;;16.50;99.90;;;;;;5015522;28;22534;-71
2023/08/06 02:55:24;;;;;;;3.70;2.60;;;16.60;99.90;;;;;;5029849;28;20580;-70
2023/08/06 02:58:10;;;;;;;5.00;3.07;;;16.70;99.90;;;;;;5011794;28;20474;-71
2023/08/06 03:01:05;;;;;;;9.90;3.20;;;16.70;99.90;;;;;;5023689;28;20436;-71
2023/08/06 03:03:50;;;;;;;3.63;2.70;;;16.60;99.90;;;;;;5026475;28;20444;-70
2023/08/06 03:06:35;;;;;;;4.33;2.83;;;16.50;99.90;;;;;;5035202;28;20442;-70
2023/08/06 03:09:21;;;;;;;4.33;2.97;;;16.50;99.90;;;;;;5026032;28;20427;-72
2023/08/06 03:12:07;;;;;;;4.03;2.50;;;16.60;99.90;;;;;;5021191;28;20448;-71
2023/08/06 03:14:53;;;;;;;8.00;3.13;;;16.60;99.90;;;;;;5029107;28;20884;-72
2023/08/06 03:17:40;;;;;;;4.20;2.77;;;16.50;99.90;;;;;;5020508;28;20863;-71
2023/08/06 03:20:26;;;;;;;5.37;2.70;;;16.40;99.90;;;;;;5037662;28;20442;-71
2023/08/06 03:23:11;;;;;;;9.43;2.90;;;16.50;99.90;;;;;;5031300;28;20436;-71
2023/08/06 03:25:57;;;;;;;7.30;2.60;;;16.40;99.90;;;;;;5027263;28;20467;-70
2023/08/06 03:28:42;;;;;;;4.40;2.53;;;16.40;99.90;;;;;;5025927;28;20449;-71
2023/08/06 03:31:28;;;;;;;3.67;2.70;;;16.30;99.90;;;;;;5037571;28;20444;-71
2023/08/06 03:34:15;;;;;;;4.40;2.60;;;16.30;99.90;;;;;;5014062;28;20465;-71
2023/08/06 03:37:00;;;;;;;7.20;2.37;;;16.10;99.90;;;;;;5027436;28;20434;-72
2023/08/06 03:39:45;;;;;;;5.70;2.97;;;16.20;99.90;;;;;;5036699;28;20465;-71
2023/08/06 03:42:31;;;;;;;5.03;3.03;;;16.20;99.90;;;;;;5032796;28;20444;-70
2023/08/06 03:45:17;;;;;;;3.50;2.50;;;16.10;99.90;;;;;;5040910;28;20467;-72
2023/08/06 03:48:02;;;;;;;4.23;2.27;;;16.20;99.90;;;;;;5021245;28;20426;-71
2023/08/06 03:50:49;;;;;;;4.00;2.70;;;16.30;99.90;;;;;;5029368;28;20547;-71
2023/08/06 03:53:34;;;;;;;5.17;2.70;;;16.20;99.90;;;;;;5022753;28;20427;-70
2023/08/06 03:56:19;;;;;;;4.13;2.10;;;16.20;99.90;;;;;;5030684;28;20510;-71
2023/08/06 03:59:05;;;;;;;5.10;2.57;;;16.30;99.90;;;;;;5026513;28;20817;-71
2023/08/06 04:01:50;;;;;;;4.87;2.57;;;16.40;99.90;;;;;;5027928;28;20454;-70
2023/08/06 04:04:36;;;;;;;5.00;2.50;;;16.20;99.90;;;;;;5037348;28;20816;-71
2023/08/06 04:07:23;;;;;;;4.70;1.97;;;16.20;99.90;;;;;;5022941;28;20443;-71
2023/08/06 04:10:09;;;;;;;3.77;2.30;;;16.10;99.90;;;;;;5025031;28;20993;-71
2023/08/06 04:12:54;;;;;;;9.70;2.83;;;16.20;99.90;;;;;;5023404;28;20418;-71
2023/08/06 04:15:39;;;;;;;10.47;2.40;;;16.20;99.90;;;;;;5035749;28;20970;-71
2023/08/06 04:18:25;;;;;;;7.60;3.27;;;16.20;99.90;;;;;;5034244;28;21110;-71
2023/08/06 04:21:11;;;;;;;5.63;2.30;;;16.30;99.90;;;;;;5014594;28;20452;-71
2023/08/06 04:23:58;;;;;;;5.27;2.20;;;16.30;99.90;;;;;;5017811;28;20817;-71
2023/08/06 04:26:43;;;;;;;4.97;2.27;;;16.20;99.90;;;;;;5038352;28;20990;-71
2023/08/06 04:29:29;;;;;;;4.93;2.30;;;16.30;99.90;;;;;;5037592;28;20434;-71
2023/08/06 04:32:14;;;;;;;3.50;2.07;;;16.30;99.90;;;;;;5031716;28;20463;-71
2023/08/06 04:35:00;;;;;;;7.60;2.80;;;16.30;99.90;;;;;;5024110;28;20538;-71
2023/08/06 04:37:45;;;;;;;5.00;2.23;;;16.20;99.90;;;;;;5035698;28;20913;-70
2023/08/06 04:40:34;;;;;;;5.93;2.87;;;16.20;99.90;;;;;;5026991;28;20419;-70
2023/08/06 04:43:19;;;;;;;6.33;2.87;;;16.00;99.90;;;;;;5033713;28;20443;-71
2023/08/06 04:46:06;;;;;;;4.50;2.27;;;15.80;99.90;;;;;;5035176;28;20453;-71
2023/08/06 04:48:51;;;;;;;8.53;3.20;;;15.70;99.90;;;;;;5041649;28;20473;-71
2023/08/06 04:51:37;;;;;;;7.83;2.67;;;15.70;99.90;;;;;;5034475;28;20456;-71
2023/08/06 04:54:22;;;;;;;5.13;2.60;;;15.70;99.90;;;;;;5028680;28;20440;-71
2023/08/06 04:57:09;;;;;;;7.00;2.73;;;15.70;99.90;;;;;;5056242;22;20511;-75
2023/08/06 04:59:54;;;;;;;5.90;3.40;;;15.70;99.90;;;;;;5059034;28;20549;-75
2023/08/06 05:02:40;;;;;;;5.77;2.73;;;15.70;99.90;;;;;;5051623;28;20558;-75
2023/08/06 05:05:25;;;;;;;3.67;2.37;;;15.80;99.90;;;;;;5053823;28;20508;-75
2023/08/06 05:08:16;;;;;;;6.23;2.13;;;15.90;99.90;;;;;;5022787;28;20489;-75
2023/08/06 05:11:01;;;;;;;2.63;1.67;;;15.90;99.90;;;;;;5024313;28;20542;-74
2023/08/06 05:13:48;;;;;;;3.70;1.70;;;15.80;99.90;;;;;;5030273;28;20456;-75
2023/08/06 05:16:33;;;;;;;6.87;1.93;;;15.60;99.90;;;;;;5022555;28;20954;-75
2023/08/06 05:19:19;;;;;;;6.33;1.90;;;15.50;99.90;;;;;;5029326;28;20800;-75
2023/08/06 05:22:05;;;;;;;7.40;1.90;;;15.50;99.90;;;;;;5033351;28;20485;-75
2023/08/06 05:24:50;;;;;;;4.30;1.90;;;15.60;99.90;;;;;;5035997;28;20528;-76
2023/08/06 05:27:36;;;;;;;3.10;1.80;;;15.50;99.90;;;;;;5033292;28;20439;-75
2023/08/06 05:30:23;;;;;;;6.17;1.60;;;15.40;99.90;;;;;;5037225;28;20418;-73
2023/08/06 05:33:09;;;;;;;2.77;1.30;;;15.40;99.90;;;;;;5036574;28;20916;-75
2023/08/06 05:35:54;;;;;;;3.40;1.53;;;15.40;99.90;;;;;;5033294;28;20448;-75
2023/08/06 05:38:39;;;;;;;3.43;1.17;;;15.50;99.90;;;;;;5024372;28;20451;-75
2023/08/06 05:41:25;;;;;;;2.80;1.60;;;15.40;99.90;;;;;;5037860;28;20423;-75
2023/08/06 05:44:11;;;;;;;4.37;1.67;;;15.30;99.90;;;;;;5035828;28;20815;-74
2023/08/06 05:46:57;;;;;;;4.60;1.80;;;15.30;99.90;;;;;;5023372;28;20511;-75
2023/08/06 05:49:43;;;;;;;6.43;1.40;;;15.30;99.90;;;;;;5034093;28;20853;-75
2023/08/06 05:52:28;;;;;;;13.13;1.50;;;15.30;99.90;;;;;;5036053;28;20422;-74
2023/08/06 05:55:14;;;;;;;3.80;1.40;;;15.40;99.90;;;;;;5031105;28;20456;-74
2023/08/06 05:57:59;;;;;;;2.10;1.33;;;15.20;99.90;;;;;;5029942;28;21009;-75
2023/08/06 06:00:46;;;;;;;5.33;1.43;;;15.10;99.90;;;;;;5031141;28;20823;-75
2023/08/06 06:03:32;;;;;;;4.80;1.30;;;15.20;99.90;;;;;;5030740;28;20454;-75
2023/08/06 06:06:18;;;;;;;2.83;1.20;;;15.30;99.90;;;;;;5022420;28;20525;-75
2023/08/06 06:09:04;;;;;;;4.27;1.60;;;15.30;99.90;;;;;;5022987;28;20514;-75
2023/08/06 06:11:50;;;;;;;4.33;1.90;;;15.30;99.90;;;;;;5037956;28;21135;-75
2023/08/06 06:14:35;;;;;;;2.90;1.27;;;15.20;99.90;;;;;;5030708;28;21037;-74
2023/08/06 06:17:21;;;;;;;7.63;1.70;;;15.20;99.90;;;;;;5022205;28;20570;-75
2023/08/06 06:20:09;;;;;;;5.60;1.40;;;15.00;99.90;;;;;;5026362;28;20479;-75
2023/08/06 06:22:54;;;;;;;5.20;1.50;;;15.10;99.90;;;;;;5028081;28;20485;-75
2023/08/06 06:25:43;;;;;;;5.23;1.50;;;15.10;99.90;;;;;;5037381;28;20787;-75
2023/08/06 06:28:28;;;;;;;7.37;2.00;;;15.20;99.90;;;;;;5030474;28;20819;-75
2023/08/06 06:31:14;;;;;;;3.10;1.00;;;15.10;99.90;;;;;;5023914;28;20794;-75
2023/08/06 06:34:00;;;;;;;5.00;1.40;;;15.10;99.90;;;;;;5028975;28;20934;-74
2023/08/06 06:36:47;;;;;;;2.80;1.33;;;15.20;99.90;;;;;;5029698;28;20495;-75
2023/08/06 06:39:32;;;;;;;5.43;1.93;;;15.20;99.90;;;;;;5036786;28;20467;-75
2023/08/06 06:42:18;;;;;;;4.03;1.43;;;15.20;99.90;;;;;;5026816;28;20469;-75
2023/08/06 06:45:04;;;;;;;2.80;1.10;;;15.20;99.90;;;;;;5028949;28;20898;-75
2023/08/06 06:47:49;;;;;;;3.63;1.70;;;15.20;99.90;;;;;;5028142;28;20442;-75
2023/08/06 06:50:36;;;;;;;10.73;1.67;;;15.10;99.90;;;;;;5034774;28;20433;-75
2023/08/06 06:53:27;;;;;;;11.23;1.87;;;15.00;99.90;;;;;;5018499;28;20891;-75
2023/08/06 06:56:12;;;;;;;2.63;1.30;;;15.00;99.90;;;;;;5042697;28;20476;-75
2023/08/06 06:58:57;;;;;;;2.40;1.43;;;15.10;99.90;;;;;;5032753;28;20415;-75
2023/08/06 07:01:43;;;;;;;2.20;1.10;;;15.00;99.90;;;;;;5029867;28;20435;-74
2023/08/06 07:04:28;;;;;;;3.30;1.30;;;15.00;99.90;;;;;;5027878;28;20424;-76
2023/08/06 07:07:14;;;;;;;3.80;1.50;;;14.90;99.90;;;;;;5025584;28;20434;-75
2023/08/06 07:10:00;;;;;;;6.03;1.63;;;14.90;99.90;;;;;;5022364;28;20419;-74
2023/08/06 07:12:46;;;;;;;4.60;1.33;;;15.00;99.90;;;;;;5029707;28;20432;-73
2023/08/06 07:15:32;;;;;;;3.63;1.10;;;15.00;99.90;;;;;;5028417;28;20452;-75
2023/08/06 07:18:17;;;;;;;2.53;1.00;;;15.10;99.90;;;;;;5033918;28;20448;-74
2023/08/06 07:21:03;;;;;;;3.20;1.10;;;15.10;99.90;;;;;;5028044;28;21038;-74
2023/08/06 07:23:49;;;;;;;4.77;1.30;;;15.10;99.90;;;;;;5026945;28;20435;-75
2023/08/06 07:26:36;;;;;;;5.97;1.50;;;15.20;99.90;;;;;;5032652;28;20501;-75
2023/08/06 07:29:22;;;;;;;4.10;1.07;;;15.40;99.90;;;;;;5024977;28;20458;-76
2023/08/06 07:32:08;;;;;;;4.20;1.00;;;15.40;99.90;;;;;;5033381;28;20443;-75
2023/08/06 07:34:56;;;;;;;2.37;0.90;;;15.50;99.90;;;;;;5033386;28;20472;-75
2023/08/06 07:37:41;;;;;;;2.70;1.00;;;15.50;99.90;;;;;;5028814;28;20992;-76
2023/08/06 07:40:27;;;;;;;3.10;1.00;;;15.40;99.90;;;;;;5026183;28;20434;-75
2023/08/06 07:43:14;;;;;;;2.10;1.43;;;15.40;99.90;;;;;;5024197;28;20443;-75
2023/08/06 07:46:00;;;;;;;2.60;1.00;;;15.40;99.90;;;;;;5022036;28;21406;-75
2023/08/06 07:48:45;;;;;;;3.47;1.00;;;15.40;99.90;;;;;;5028715;28;20445;-75
2023/08/06 07:51:31;;;;;;;2.50;1.00;;;15.30;99.90;;;;;;5028727;28;20436;-75
2023/08/06 07:54:16;;;;;;;2.17;1.10;;;15.30;99.90;;;;;;5029656;28;20426;-73
2023/08/06 07:57:02;;;;;;;4.10;1.00;;;15.20;99.90;;;;;;5027298;28;20502;-75
2023/08/06 07:59:49;;;;;;;2.70;0.97;;;15.20;99.90;;;;;;5023510;28;20442;-75
2023/08/06 08:02:34;;;;;;;2.63;0.93;;;15.30;99.90;;;;;;5026608;28;20829;-75
2023/08/06 08:05:20;;;;;;;3.33;0.93;;;15.40;99.90;;;;;;5027184;28;20470;-75
2023/08/06 08:08:05;;;;;;;3.20;0.87;;;15.40;99.90;;;;;;5027118;28;20549;-75
2023/08/06 08:10:51;;;;;;;1.90;0.83;;;15.50;99.90;;;;;;5031241;28;20435;-74
2023/08/06 08:13:36;;;;;;;1.70;0.90;;;15.40;99.90;;;;;;5024561;28;20471;-76
2023/08/06 08:16:23;;;;;;;2.40;0.80;;;15.40;99.90;;;;;;5021817;28;20510;-75
2023/08/06 08:19:09;;;;;;;1.70;0.70;;;15.40;99.90;;;;;;5024080;28;20457;-75
2023/08/06 08:21:54;;;;;;;3.43;0.90;;;15.40;99.90;;;;;;5018776;28;20800;-75
2023/08/06 08:24:40;;;;;;;3.57;1.10;;;15.30;99.90;;;;;;5036418;28;20489;-76
2023/08/06 08:27:26;;;;;;;2.27;0.90;;;15.30;99.90;;;;;;5027572;28;20467;-76
2023/08/06 08:30:11;;;;;;;7.63;1.10;;;15.40;99.90;;;;;;5021517;28;20449;-75
2023/08/06 08:32:58;;;;;;;3.77;1.10;;;15.60;99.90;;;;;;5026218;28;20497;-75
2023/08/06 08:35:43;;;;;;;2.83;1.00;;;15.70;99.90;;;;;;5032353;28;20403;-75
2023/08/06 08:38:29;;;;;;;4.13;1.10;;;15.60;99.90;;;;;;5030488;28;20528;-75
2023/08/06 08:41:16;;;;;;;9.43;1.30;;;15.70;99.90;;;;;;5024092;28;20910;-75
2023/08/06 08:44:02;;;;;;;1.77;0.73;;;15.80;99.90;;;;;;5029219;28;20441;-75
2023/08/06 08:46:49;;;;;;;1.90;1.10;;;15.80;99.90;;;;;;5024333;28;20566;-75
2023/08/06 08:49:36;;;;;;;2.03;0.80;;;15.90;99.90;;;;;;5027158;28;20418;-74
2023/08/06 08:52:23;;;;;;;3.77;1.10;;;16.00;99.90;;;;;;5022532;28;20516;-75
2023/08/06 08:55:09;;;;;;;1.50;0.80;;;15.90;99.90;;;;;;5027081;28;20452;-75
2023/08/06 08:57:54;;;;;;;3.97;1.20;;;15.90;99.90;;;;;;5026074;28;20447;-74
2023/08/06 09:00:42;;;;;;;1.70;1.00;;;16.10;99.90;;;;;;5033656;28;20827;-75
2023/08/06 09:03:27;;;;;;;1.37;0.60;;;16.10;99.90;;;;;;5029836;28;20447;-75
2023/08/06 09:06:16;;;;;;;1.53;0.80;;;16.10;99.90;;;;;;5042176;28;20446;-75
2023/08/06 09:09:07;;;;;;;2.27;1.10;;;16.20;99.90;;;;;;5023362;28;20443;-74
2023/08/06 09:11:53;;;;;;;2.00;0.70;;;16.20;99.90;;;;;;5029173;28;20596;-75
2023/08/06 09:14:38;;;;;;;1.33;0.70;;;16.20;99.90;;;;;;5034965;28;20516;-75
2023/08/06 09:17:24;;;;;;;1.40;0.57;;;16.10;99.90;;;;;;5025266;28;20508;-75
2023/08/06 09:20:14;;;;;;;1.50;0.73;;;16.20;99.90;;;;;;5036531;28;20468;-74
2023/08/06 09:23:08;;;;;;;2.03;0.70;;;16.30;99.90;;;;;;5029759;28;20564;-75
2023/08/06 09:25:53;;;;;;;1.50;0.90;;;16.30;99.90;;;;;;5032206;28;20452;-75
2023/08/06 09:28:41;;;;;;;1.77;0.80;;;16.20;99.90;;;;;;5031274;28;20527;-74
2023/08/06 09:31:33;;;;;;;1.63;0.80;;;16.10;99.90;;;;;;5029466;28;20511;-73
2023/08/06 09:34:20;;;;;;;3.33;1.00;;;16.20;99.90;;;;;;5031033;28;20470;-75
2023/08/06 09:37:05;;;;;;;1.67;0.70;;;16.30;99.90;;;;;;5026990;28;20447;-75
2023/08/06 09:39:53;;;;;;;1.40;0.77;;;16.40;99.90;;;;;;5032796;28;20571;-75
2023/08/06 09:42:43;;;;;;;6.10;1.17;;;16.40;99.90;;;;;;5033461;28;20420;-75
2023/08/06 09:45:31;;;;;;;4.23;1.60;;;16.40;99.90;;;;;;5035966;28;20456;-75
2023/08/06 09:48:16;;;;;;;4.33;1.00;;;16.40;99.90;;;;;;5026057;28;20607;-75
2023/08/06 09:51:04;;;;;;;2.63;1.03;;;16.40;99.90;;;;;;5028456;28;20444;-74
2023/08/06 09:53:50;;;;;;;2.83;0.93;;;16.50;99.90;;;;;;5029776;28;21355;-75
2023/08/06 09:56:38;;;;;;;1.83;1.00;;;16.30;99.90;;;;;;5035032;28;20476;-75
2023/08/06 09:59:25;;;;;;;1.60;0.90;;;16.20;99.90;;;;;;5035534;28;20541;-75
2023/08/06 10:02:13;;;;;;;3.00;0.83;;;16.30;99.90;;;;;;5030573;28;20548;-75
2023/08/06 10:05:00;;;;;;;1.50;0.80;;;16.40;99.90;;;;;;5040475;28;20439;-74
2023/08/06 10:07:46;;;;;;;4.63;1.20;;;16.50;99.90;;;;;;5029172;28;20441;-76
2023/08/06 10:10:32;;;;;;;1.83;0.70;;;16.50;99.90;;;;;;5032458;28;20418;-76
2023/08/06 10:13:22;;;;;;;2.00;0.90;;;16.40;99.90;;;;;;5031306;28;20449;-75
2023/08/06 10:16:08;;;;;;;1.87;1.03;;;16.40;99.90;;;;;;5030461;28;20461;-75
2023/08/06 10:18:55;;;;;;;4.77;1.23;;;16.30;99.90;;;;;;5037951;28;20451;-75
2023/08/06 10:21:41;;;;;;;2.50;1.00;;;16.40;99.90;;;;;;5027676;28;20504;-75
2023/08/06 10:24:26;;;;;;;1.50;0.80;;;16.40;99.90;;;;;;5028392;28;20511;-75
2023/08/06 10:27:12;;;;;;;1.90;0.80;;;16.30;99.90;;;;;;5031677;28;20563;-75
2023/08/06 10:30:22;;;;;;;1.23;0.60;;;16.30;99.90;;;;;;5025225;28;20503;-74
2023/08/06 10:33:07;;;;;;;2.10;1.00;;;16.20;99.90;;;;;;5030686;28;20423;-75
2023/08/06 10:36:04;;;;;;;2.37;0.90;;;16.10;99.90;;;;;;5034142;28;20421;-75
2023/08/06 10:38:50;;;;;;;1.50;0.80;;;16.10;99.90;;;;;;5025063;28;20506;-76
2023/08/06 10:41:36;;;;;;;1.80;0.80;;;16.10;99.90;;;;;;5032271;28;20475;-75
2023/08/06 10:44:21;;;;;;;2.37;0.43;;;16.00;99.90;;;;;;5030035;28;20445;-74
2023/08/06 10:47:29;;;;;;;1.67;0.63;;;16.10;99.90;;;;;;5030780;28;20472;-75
2023/08/06 10:50:16;;;;;;;1.20;0.50;;;16.10;99.90;;;;;;5034125;28;20463;-75
2023/08/06 10:53:06;;;;;;;1.93;0.60;;;15.90;99.90;;;;;;5026229;28;21172;-74
2023/08/06 10:55:51;;;;;;;1.40;0.50;;;15.80;99.90;;;;;;5034793;28;20419;-75
2023/08/06 10:58:37;;;;;;;1.13;0.40;;;15.70;99.90;;;;;;5068334;22;20489;-70
2023/08/06 11:01:23;;;;;;;3.00;0.60;;;15.70;99.90;;;;;;5056507;28;20521;-71
2023/08/06 11:04:15;;;;;;;2.83;0.70;;;15.70;99.90;;;;;;5044976;28;20572;-71
2023/08/06 11:07:01;;;;;;;1.20;0.50;;;15.70;99.90;;;;;;5041913;28;20471;-71
2023/08/06 11:09:52;;;;;;;1.60;0.70;;;15.60;99.90;;;;;;5033976;28;20471;-71
2023/08/06 11:12:37;;;;;;;1.40;0.50;;;15.70;99.90;;;;;;5030845;28;20502;-71
2023/08/06 11:15:23;;;;;;;1.60;0.60;;;15.80;99.90;;;;;;5025316;28;20586;-71
2023/08/06 11:18:08;;;;;;;1.20;0.50;;;15.70;99.90;;;;;;5025772;28;20823;-70
2023/08/06 11:20:55;;;;;;;4.40;0.70;;;15.70;99.90;;;;;;5022631;28;20476;-70
2023/08/06 11:23:41;;;;;;;1.20;0.50;;;15.60;99.90;;;;;;5026865;28;20515;-71
2023/08/06 11:26:28;;;;;;;1.20;0.50;;;15.60;99.90;;;;;;5025410;28;20494;-70
2023/08/06 11:29:15;;;;;;;1.50;0.60;;;15.50;99.90;;;;;;5029669;28;20467;-70
2023/08/06 11:32:04;;;;;;;1.33;0.60;;;15.40;99.90;;;;;;5021183;28;22492;-70
2023/08/06 11:34:50;;;;;;;1.63;0.80;;;15.40;99.90;;;;;;5031077;28;20423;-71
2023/08/06 11:37:37;;;;;;;1.20;0.50;;;15.40;99.90;;;;;;5029401;28;20531;-71
2023/08/06 11:40:23;;;;;;;1.33;0.67;;;15.50;99.90;;;;;;5023591;28;20490;-71
2023/08/06 11:43:08;;;;;;;2.43;0.77;;;15.60;99.90;;;;;;5027019;28;20583;-71
2023/08/06 11:45:57;;;;;;;1.40;0.73;;;15.60;99.90;;;;;;5025940;28;20569;-71
2023/08/06 11:48:52;;;;;;;1.57;0.80;;;15.70;99.90;;;;;;5027130;28;20514;-71
2023/08/06 11:51:37;;;;;;;6.70;0.80;;;15.70;99.90;;;;;;5022411;28;20594;-71
2023/08/06 11:54:34;;;;;;;1.67;0.90;;;15.80;99.90;;;;;;5026530;28;20521;-71
2023/08/06 11:57:19;;;;;;;2.70;0.97;;;15.80;99.90;;;;;;5017907;28;20496;-71
2023/08/06 12:00:05;;;;;;;1.30;0.70;;;15.90;99.90;;;;;;5031817;28;20444;-71
2023/08/06 12:02:52;;;;;;;2.03;0.60;;;15.90;99.90;;;;;;5011012;28;20484;-71
2023/08/06 12:05:39;;;;;;;2.47;0.70;;;15.90;99.90;;;;;;5024731;28;20453;-71
2023/08/06 12:08:27;;;;;;;2.10;0.67;;;15.80;99.90;;;;;;5026615;28;20476;-71
2023/08/06 12:11:14;;;;;;;2.17;0.83;;;15.80;99.90;;;;;;5021528;28;20453;-71
2023/08/06 12:14:00;;;;;;;1.70;0.70;;;15.80;99.90;;;;;;5023036;28;20561;-71
2023/08/06 12:16:46;;;;;;;1.50;0.60;;;15.90;99.90;;;;;;5012078;28;20458;-71
2023/08/06 12:19:32;;;;;;;1.20;0.60;;;15.90;99.90;;;;;;5019774;28;20685;-71
2023/08/06 12:22:18;;;;;;;3.13;1.10;;;15.90;99.90;;;;;;5016484;28;20482;-71
2023/08/06 12:25:03;;;;;;;2.73;0.70;;;15.90;99.90;;;;;;5028474;28;20468;-71
2023/08/06 12:27:50;;;;;;;2.10;0.73;;;16.00;99.90;;;;;;5026767;28;20838;-71
2023/08/06 12:30:36;;;;;;;2.00;0.80;;;16.00;99.90;;;;;;5025688;28;20414;-71
2023/08/06 12:33:21;;;;;;;1.50;0.67;;;16.00;99.90;;;;;;5023756;28;20448;-71
2023/08/06 12:36:07;;;;;;;2.10;1.10;;;16.00;99.90;;;;;;5022786;28;20452;-71
2023/08/06 12:38:52;;;;;;;2.83;0.93;;;16.10;99.90;;;;;;5022637;28;20483;-71
2023/08/06 12:41:38;;;;;;;4.13;1.10;;;16.00;99.90;;;;;;5034318;28;20454;-71
2023/08/06 12:44:25;;;;;;;5.73;1.57;;;16.00;99.90;;;;;;5024760;28;20459;-71
2023/08/06 12:47:10;;;;;;;1.90;0.87;;;16.00;99.90;;;;;;5019349;28;20543;-71
2023/08/06 12:49:56;;;;;;;2.40;1.10;;;16.00;99.90;;;;;;5030594;28;20426;-71
2023/08/06 12:52:41;;;;;;;2.03;1.00;;;16.00;99.90;;;;;;5030042;28;20781;-71
2023/08/06 12:55:27;;;;;;;1.30;0.53;;;16.00;99.90;;;;;;5026152;28;20573;-71
2023/08/06 12:58:12;;;;;;;3.50;1.37;;;16.00;99.90;;;;;;5026037;28;20596;-72
2023/08/06 13:00:59;;;;;;;2.37;0.80;;;16.10;99.90;;;;;;5024039;28;20480;-71
2023/08/06 13:03:45;;;;;;;1.93;0.87;;;16.10;99.90;;;;;;5024418;28;20447;-71
2023/08/06 13:06:35;;;;;;;1.50;0.80;;;16.10;99.90;;;;;;5037093;28;20423;-71
2023/08/06 13:09:20;;;;;;;1.40;0.70;;;16.10;99.90;;;;;;5028263;28;20444;-71
2023/08/06 13:12:07;;;;;;;2.43;0.87;;;16.20;99.90;;;;;;5020996;28;20411;-72
2023/08/06 13:14:52;;;;;;;2.13;0.70;;;16.20;99.90;;;;;;5034476;28;20981;-72
2023/08/06 13:17:39;;;;;;;4.50;0.90;;;16.20;99.90;;;;;;5024797;28;20443;-71
2023/08/06 13:20:25;;;;;;;2.23;1.00;;;16.10;99.90;;;;;;5019622;28;21180;-71
2023/08/06 13:23:10;;;;;;;1.80;0.80;;;16.10;99.90;;;;;;5030660;28;20415;-71
2023/08/06 13:25:56;;;;;;;2.07;0.90;;;16.00;99.90;;;;;;5021321;28;20411;-71
2023/08/06 13:28:41;;;;;;;2.10;1.10;;;15.90;99.90;;;;;;5026536;28;20471;-71
2023/08/06 13:31:28;;;;;;;5.40;1.33;;;15.80;99.90;;;;;;5029210;28;20419;-71
2023/08/06 13:34:16;;;;;;;2.20;1.10;;;15.80;99.90;;;;;;5028325;28;20935;-71
2023/08/06 13:37:02;;;;;;;2.20;0.90;;;15.70;99.90;;;;;;5032101;28;20471;-71
2023/08/06 13:39:47;;;;;;;2.03;0.90;;;15.80;99.90;;;;;;5027999;28;20448;-71
2023/08/06 13:42:33;;;;;;;1.80;0.80;;;15.80;99.90;;;;;;5027796;28;20463;-71
2023/08/06 13:45:18;;;;;;;1.83;0.90;;;15.80;99.90;;;;;;5019917;28;20552;-71
2023/08/06 13:48:04;;;;;;;2.07;0.83;;;15.80;99.90;;;;;;5019915;28;20446;-70
2023/08/06 13:50:51;;;;;;;2.10;0.90;;;15.90;99.90;;;;;;5021165;28;20827;-71
2023/08/06 13:53:36;;;;;;;2.27;0.70;;;15.90;99.90;;;;;;5029303;28;21267;-71
2023/08/06 13:56:22;;;;;;;1.73;0.83;;;16.00;99.90;;;;;;5022417;28;21505;-70
2023/08/06 13:59:08;;;;;;;1.60;0.70;;;16.00;99.90;;;;;;5024795;28;20444;-71
2023/08/06 14:01:53;;;;;;;3.00;0.90;;;16.00;99.90;;;;;;5021783;28;20442;-72
2023/08/06 14:04:39;;;;;;;3.87;0.73;;;16.10;99.90;;;;;;5030089;28;20940;-71
2023/08/06 14:07:26;;;;;;;2.00;1.00;;;16.10;99.90;;;;;;5022628;28;20504;-71
2023/08/06 14:10:12;;;;;;;2.23;0.90;;;16.10;99.90;;;;;;5024209;28;20461;-71
2023/08/06 14:12:57;;;;;;;4.70;0.83;;;16.20;99.90;;;;;;5022975;28;20554;-71
2023/08/06 14:15:46;;;;;;;2.10;0.93;;;16.10;99.90;;;;;;5019111;28;20470;-71
2023/08/06 14:18:31;;;;;;;1.40;0.80;;;16.20;99.90;;;;;;5018953;28;20956;-71
2023/08/06 14:21:17;;;;;;;3.30;0.97;;;16.20;99.90;;;;;;5027494;28;20822;-71
2023/08/06 14:24:04;;;;;;;1.30;0.70;;;16.20;99.90;;;;;;5022546;28;20518;-71